createdAt,value
2023-01-17T00:01:12.982Z,94.88
2023-01-17T00:03:57.888Z,94.70
2023-01-17T00:06:43.858Z,94.60
2023-01-17T00:09:30.116Z,94.27
2023-01-17T00:11:57.566Z,94.03
2023-01-17T00:14:24.003Z,94.62
2023-01-17T00:16:50.409Z,94.40
2023-01-17T00:19:35.961Z,94.17
2023-01-17T00:22:27.267Z,94.56
2023-01-17T00:25:12.140Z,94.31
2023-01-17T00:27:38.506Z,94.50
2023-01-17T00:30:05.481Z,94.65
2023-01-17T00:32:31.820Z,94.42
2023-01-17T00:34:58.151Z,94.74
2023-01-17T00:37:24.474Z,94.56
2023-01-17T00:39:50.817Z,94.31
2023-01-17T00:42:17.141Z,93.75
2023-01-17T00:45:01.890Z,93.78
2023-01-17T00:47:46.743Z,94.20
2023-01-17T00:50:31.799Z,94.13
2023-01-17T00:53:22.579Z,93.84
2023-01-17T00:56:07.466Z,93.56
2023-01-17T00:58:52.620Z,93.88
2023-01-17T01:01:37.667Z,93.75
2023-01-17T01:04:22.631Z,93.34
2023-01-17T01:07:07.427Z,93.24
2023-01-17T01:09:52.066Z,93.75
2023-01-17T01:12:36.773Z,93.57
2023-01-17T01:15:21.467Z,94.13
2023-01-17T01:18:06.201Z,94.03
2023-01-17T01:20:51.006Z,93.75
2023-01-17T01:23:35.857Z,93.81
2023-01-17T01:26:22.573Z,93.88
2023-01-17T01:29:07.245Z,94.24
2023-01-17T01:31:52.434Z,94.16
2023-01-17T01:34:18.926Z,94.26
2023-01-17T01:36:45.334Z,94.08
2023-01-17T01:39:11.793Z,94.47
2023-01-17T01:41:38.162Z,94.50
2023-01-17T01:44:04.857Z,93.60
2023-01-17T01:46:39.509Z,93.92
2023-01-17T01:49:17.433Z,93.62
2023-01-17T01:51:49.157Z,93.56
2023-01-17T01:54:20.417Z,93.59
2023-01-17T01:56:50.052Z,93.39
2023-01-17T01:59:19.951Z,93.59
2023-01-17T02:01:48.154Z,93.56
2023-01-17T02:04:15.178Z,93.41
2023-01-17T02:06:45.997Z,93.71
2023-01-17T02:09:15.170Z,93.59
2023-01-17T02:11:41.856Z,93.63
2023-01-17T02:14:08.852Z,93.82
2023-01-17T02:17:06.029Z,94.00
2023-01-17T02:20:05.119Z,94.05
2023-01-17T02:22:56.105Z,94.12
2023-01-17T02:25:25.480Z,94.19
2023-01-17T02:28:04.250Z,94.23
2023-01-17T02:30:33.704Z,94.24
2023-01-17T02:33:09.373Z,93.96
2023-01-17T02:35:49.984Z,93.90
2023-01-17T02:38:37.048Z,93.55
2023-01-17T02:41:13.675Z,93.79
2023-01-17T02:43:40.509Z,93.97
2023-01-17T02:46:08.887Z,94.12
2023-01-17T02:48:36.987Z,93.83
2023-01-17T02:51:18.649Z,93.78
2023-01-17T02:54:19.436Z,94.02
2023-01-17T02:57:06.737Z,94.46
2023-01-17T02:59:55.729Z,94.43
2023-01-17T03:02:31.095Z,94.22
2023-01-17T03:05:04.915Z,94.29
2023-01-17T03:07:33.016Z,94.32
2023-01-17T03:10:03.577Z,94.31
2023-01-17T03:12:32.200Z,94.15
2023-01-17T03:14:58.675Z,94.50
2023-01-17T03:17:30.344Z,93.90
2023-01-17T03:19:56.730Z,94.07
2023-01-17T03:22:23.221Z,94.04
2023-01-17T03:24:50.259Z,94.12
2023-01-17T03:27:16.624Z,94.37
2023-01-17T03:29:42.985Z,94.23
2023-01-17T03:32:09.364Z,94.60
2023-01-17T03:34:35.729Z,94.49
2023-01-17T03:37:02.076Z,94.77
2023-01-17T03:39:28.507Z,94.66
2023-01-17T03:41:54.946Z,94.44
2023-01-17T03:44:21.324Z,94.06
2023-01-17T03:46:47.680Z,94.09
2023-01-17T03:49:14.040Z,94.39
2023-01-17T03:51:40.396Z,94.03
2023-01-17T03:54:06.789Z,94.36
2023-01-17T03:56:33.185Z,94.17
2023-01-17T03:58:59.542Z,93.94
2023-01-17T04:01:26.054Z,94.11
2023-01-17T04:03:52.607Z,93.94
2023-01-17T04:06:18.970Z,93.96
2023-01-17T04:08:45.339Z,94.13
2023-01-17T04:11:11.685Z,94.08
2023-01-17T04:13:38.028Z,94.18
2023-01-17T04:16:04.881Z,94.15
2023-01-17T04:18:31.238Z,93.81
2023-01-17T04:20:57.679Z,93.68
2023-01-17T04:23:24.159Z,93.80
2023-01-17T04:25:50.648Z,93.53
2023-01-17T04:28:17.088Z,93.73
2023-01-17T04:30:43.464Z,93.66
2023-01-17T04:33:09.839Z,93.57
2023-01-17T04:35:36.229Z,93.56
2023-01-17T04:38:03.178Z,94.02
2023-01-17T04:40:29.657Z,94.05
2023-01-17T04:42:57.775Z,94.07
2023-01-17T04:45:24.171Z,94.14
2023-01-17T04:47:50.566Z,94.15
2023-01-17T04:50:17.598Z,94.05
2023-01-17T04:52:44.158Z,93.74
2023-01-17T04:55:10.580Z,94.24
2023-01-17T04:57:36.946Z,94.34
2023-01-17T05:00:04.515Z,94.30
2023-01-17T05:02:31.002Z,94.26
2023-01-17T05:04:57.354Z,94.07
2023-01-17T05:07:23.711Z,94.38
2023-01-17T05:09:50.080Z,94.27
2023-01-17T05:12:16.459Z,94.06
2023-01-17T05:14:42.849Z,94.23
2023-01-17T05:17:11.135Z,94.10
2023-01-17T05:19:37.676Z,94.06
2023-01-17T05:22:14.736Z,94.04
2023-01-17T05:24:42.982Z,93.81
2023-01-17T05:27:09.614Z,93.99
2023-01-17T05:29:36.164Z,93.91
2023-01-17T05:32:02.872Z,93.75
2023-01-17T05:34:29.265Z,93.86
2023-01-17T05:36:55.829Z,93.60
2023-01-17T05:39:22.316Z,93.78
2023-01-17T05:41:48.668Z,93.53
2023-01-17T05:44:18.028Z,93.95
2023-01-17T05:46:44.409Z,93.72
2023-01-17T05:49:10.862Z,93.31
2023-01-17T05:51:39.440Z,93.73
2023-01-17T05:54:06.092Z,93.67
2023-01-17T05:56:33.234Z,93.61
2023-01-17T05:59:00.148Z,93.54
2023-01-17T06:01:26.525Z,93.52
2023-01-17T06:03:52.891Z,93.72
2023-01-17T06:06:19.236Z,93.85
2023-01-17T06:08:45.596Z,94.08
2023-01-17T06:11:11.988Z,94.16
2023-01-17T06:13:38.360Z,94.07
2023-01-17T06:16:04.926Z,94.46
2023-01-17T06:18:31.929Z,93.85
2023-01-17T06:20:58.647Z,94.17
2023-01-17T06:23:25.492Z,93.97
2023-01-17T06:25:52.486Z,94.50
2023-01-17T06:28:21.718Z,94.73
2023-01-17T06:30:48.830Z,94.37
2023-01-17T06:33:15.671Z,94.62
2023-01-17T06:35:50.423Z,94.80
2023-01-17T06:38:18.138Z,94.87
2023-01-17T06:44:31.860Z,94.00
2023-01-17T06:46:58.454Z,94.82
2023-01-17T06:49:25.984Z,94.31
2023-01-17T06:51:52.458Z,94.11
2023-01-17T06:54:20.869Z,94.14
2023-01-17T06:57:00.389Z,94.06
2023-01-17T06:59:26.778Z,94.15
2023-01-17T07:01:58.435Z,94.36
2023-01-17T07:04:24.861Z,94.19
2023-01-17T07:06:54.333Z,94.16
2023-01-17T07:09:20.776Z,94.32
2023-01-17T07:11:47.145Z,94.26
2023-01-17T07:14:14.527Z,94.28
2023-01-17T07:17:00.147Z,94.12
2023-01-17T07:19:26.524Z,94.20
2023-01-17T07:21:58.965Z,94.13
2023-01-17T07:24:25.313Z,94.15
2023-01-17T07:26:59.813Z,94.22
2023-01-17T07:29:26.206Z,94.17
2023-01-17T07:31:52.579Z,94.38
2023-01-17T07:34:18.959Z,94.66
2023-01-17T07:36:45.436Z,94.25
2023-01-17T07:39:12.027Z,94.11
2023-01-17T07:41:41.259Z,94.06
2023-01-17T07:44:10.225Z,94.23
2023-01-17T07:46:38.738Z,94.34
2023-01-17T07:49:44.594Z,94.33
2023-01-17T07:52:11.084Z,94.00
2023-01-17T07:54:39.565Z,94.20
2023-01-17T07:57:06.126Z,94.07
2023-01-17T07:59:45.688Z,94.18
2023-01-17T08:02:19.457Z,94.12
2023-01-17T08:05:16.776Z,93.66
2023-01-17T08:07:43.160Z,94.22
2023-01-17T08:10:13.128Z,93.86
2023-01-17T08:12:39.512Z,93.85
2023-01-17T08:15:06.531Z,93.96
2023-01-17T08:17:57.529Z,93.80
2023-01-17T08:20:27.549Z,93.77
2023-01-17T08:22:56.054Z,93.99
2023-01-17T08:25:26.249Z,93.54
2023-01-17T08:27:56.910Z,93.48
2023-01-17T08:30:23.977Z,93.69
2023-01-17T08:32:50.403Z,93.15
2023-01-17T08:35:57.498Z,93.35
2023-01-17T08:38:43.145Z,93.23
2023-01-17T08:41:09.566Z,93.63
2023-01-17T08:43:36.025Z,93.61
2023-01-17T08:46:02.463Z,93.38
2023-01-17T08:48:34.971Z,93.45
2023-01-17T08:51:02.515Z,93.44
2023-01-17T08:53:30.171Z,93.52
2023-01-17T08:56:02.160Z,93.08
2023-01-17T08:58:30.821Z,93.08
2023-01-17T09:01:06.045Z,92.37
2023-01-17T09:03:34.093Z,92.75
2023-01-17T09:06:12.589Z,92.06
2023-01-17T09:08:39.701Z,92.51
2023-01-17T09:11:12.997Z,92.39
2023-01-17T09:13:39.535Z,92.99
2023-01-17T09:16:06.568Z,92.14
2023-01-17T09:18:35.881Z,92.29
2023-01-17T09:21:18.159Z,92.68
2023-01-17T09:23:44.906Z,92.81
2023-01-17T09:26:22.789Z,92.48
2023-01-17T09:28:49.397Z,92.22
2023-01-17T09:31:17.566Z,92.60
2023-01-17T09:33:44.371Z,92.47
2023-01-17T09:36:11.377Z,92.45
2023-01-17T09:38:38.173Z,92.33
2023-01-17T09:41:21.960Z,92.47
2023-01-17T09:43:56.847Z,92.57
2023-01-17T09:46:28.652Z,92.41
2023-01-17T09:49:13.003Z,92.40
2023-01-17T09:51:39.580Z,92.02
2023-01-17T09:54:18.975Z,92.24
2023-01-17T09:56:53.027Z,92.20
2023-01-17T09:59:35.354Z,91.80
2023-01-17T10:02:28.345Z,91.85
2023-01-17T10:05:07.073Z,92.26
2023-01-17T10:08:19.257Z,92.09
2023-01-17T10:11:23.303Z,91.88
2023-01-17T10:14:19.969Z,91.71
2023-01-17T10:17:02.230Z,91.59
2023-01-17T10:19:41.025Z,91.76
2023-01-17T10:22:17.159Z,91.98
2023-01-17T10:24:54.572Z,91.52
2023-01-17T10:27:57.908Z,91.44
2023-01-17T10:30:33.666Z,91.27
2023-01-17T10:33:14.911Z,90.91
2023-01-17T10:35:51.653Z,90.51
2023-01-17T10:38:19.483Z,90.76
2023-01-17T10:40:54.818Z,90.01
2023-01-17T10:43:45.521Z,90.87
2023-01-17T10:46:19.999Z,90.65
2023-01-17T10:48:49.618Z,90.34
2023-01-17T10:51:26.822Z,90.56
2023-01-17T10:54:18.267Z,90.41
2023-01-17T10:56:44.709Z,90.28
2023-01-17T10:59:32.118Z,90.38
2023-01-17T11:02:23.696Z,90.12
2023-01-17T11:04:54.536Z,88.23
2023-01-17T11:07:24.403Z,86.76
2023-01-17T11:10:36.705Z,86.58
2023-01-17T11:13:26.960Z,87.35
2023-01-17T11:15:57.701Z,86.21
2023-01-17T11:18:28.945Z,86.46
2023-01-17T11:21:11.286Z,86.37
2023-01-17T11:23:40.703Z,86.15
2023-01-17T11:26:11.134Z,86.30
2023-01-17T11:28:40.030Z,86.39
2023-01-17T11:31:34.167Z,86.98
2023-01-17T11:34:15.484Z,87.20
2023-01-17T11:36:42.442Z,87.35
2023-01-17T11:39:27.568Z,87.29
2023-01-17T11:41:54.508Z,85.71
2023-01-17T11:44:28.846Z,85.23
2023-01-17T11:47:13.591Z,83.07
2023-01-17T11:49:41.894Z,81.66
2023-01-17T11:52:10.378Z,81.50
2023-01-17T11:54:40.263Z,81.28
2023-01-17T11:57:31.421Z,81.74
2023-01-17T12:00:28.473Z,80.58
2023-01-17T12:03:15.096Z,77.11
2023-01-17T12:05:55.269Z,75.78
2023-01-17T12:08:41.445Z,73.53
2023-01-17T12:11:22.034Z,69.25
2023-01-17T12:14:15.686Z,69.93
2023-01-17T12:16:44.985Z,67.83
2023-01-17T12:19:23.375Z,65.64
2023-01-17T12:22:22.878Z,65.04
2023-01-17T12:25:25.935Z,65.90
2023-01-17T12:28:08.695Z,65.26
2023-01-17T12:30:52.070Z,66.20
2023-01-17T12:33:27.843Z,62.60
2023-01-17T12:36:02.075Z,60.26
2023-01-17T12:38:40.672Z,62.00
2023-01-17T12:41:16.777Z,60.48
2023-01-17T12:43:44.766Z,62.33
2023-01-17T12:46:27.098Z,65.03
2023-01-17T12:49:25.914Z,65.75
2023-01-17T12:52:29.951Z,66.95
2023-01-17T12:55:02.355Z,68.16
2023-01-17T12:58:07.905Z,68.55
2023-01-17T13:00:48.977Z,69.56
2023-01-17T13:03:52.439Z,71.52
2023-01-17T13:06:45.709Z,72.70
2023-01-17T13:09:17.048Z,67.47
2023-01-17T13:11:52.730Z,65.73
2023-01-17T13:14:19.188Z,63.46
2023-01-17T13:16:58.613Z,62.69
2023-01-17T13:19:42.613Z,63.31
2023-01-17T13:22:17.342Z,64.83
2023-01-17T13:25:12.810Z,65.94
2023-01-17T13:27:47.288Z,67.90
2023-01-17T13:30:43.376Z,69.03
2023-01-17T13:33:40.291Z,70.08
2023-01-17T13:36:17.933Z,71.04
2023-01-17T13:39:02.485Z,71.49
2023-01-17T13:41:36.887Z,72.86
2023-01-17T13:44:22.936Z,73.26
2023-01-17T13:47:26.012Z,72.09
2023-01-17T13:49:56.747Z,72.79
2023-01-17T13:52:26.223Z,73.91
2023-01-17T13:54:57.881Z,74.93
2023-01-17T13:57:29.903Z,73.99
2023-01-17T14:00:28.540Z,75.02
2023-01-17T14:02:55.680Z,74.24
2023-01-17T14:05:42.052Z,71.70
2023-01-17T14:08:18.906Z,69.13
2023-01-17T14:10:49.521Z,66.87
2023-01-17T14:13:34.805Z,69.05
2023-01-17T14:16:02.802Z,69.18
2023-01-17T14:18:40.636Z,68.27
2023-01-17T14:21:19.013Z,66.47
2023-01-17T14:24:03.918Z,67.76
2023-01-17T14:26:37.512Z,67.63
2023-01-17T14:29:41.595Z,70.14
2023-01-17T14:32:14.195Z,70.16
2023-01-17T14:34:41.035Z,71.90
2023-01-17T14:37:20.265Z,72.54
2023-01-17T14:39:49.530Z,73.48
2023-01-17T14:42:20.292Z,74.94
2023-01-17T14:44:56.685Z,75.31
2023-01-17T14:47:23.242Z,75.51
2023-01-17T14:50:08.654Z,76.72
2023-01-17T14:52:35.068Z,77.10
2023-01-17T14:55:14.484Z,78.36
2023-01-17T14:57:40.931Z,78.33
2023-01-17T15:00:10.941Z,78.24
2023-01-17T15:02:41.943Z,78.88
2023-01-17T15:05:13.114Z,79.30
2023-01-17T15:07:40.132Z,79.67
2023-01-17T15:10:12.848Z,80.21
2023-01-17T15:12:39.362Z,79.93
2023-01-17T15:15:26.882Z,81.22
2023-01-17T15:18:13.269Z,81.42
2023-01-17T15:20:41.769Z,81.75
2023-01-17T15:23:21.549Z,82.86
2023-01-17T15:25:50.740Z,83.05
2023-01-17T15:28:18.233Z,83.15
2023-01-17T15:31:06.782Z,83.07
2023-01-17T15:33:34.649Z,84.12
2023-01-17T15:36:21.238Z,84.01
2023-01-17T15:38:59.495Z,84.34
2023-01-17T15:41:38.077Z,84.46
2023-01-17T15:44:05.370Z,84.83
2023-01-17T15:46:42.057Z,85.25
2023-01-17T15:49:19.177Z,84.99
2023-01-17T15:51:50.518Z,85.05
2023-01-17T15:54:34.488Z,85.30
2023-01-17T15:57:20.234Z,85.46
2023-01-17T16:00:06.983Z,85.48
2023-01-17T16:02:55.763Z,85.78
2023-01-17T16:05:22.815Z,85.64
2023-01-17T16:07:56.452Z,85.89
2023-01-17T16:10:28.529Z,86.31
2023-01-17T16:12:56.177Z,86.02
2023-01-17T16:15:23.630Z,86.18
2023-01-17T16:18:04.379Z,86.24
2023-01-17T16:20:35.895Z,86.76
2023-01-17T16:23:02.641Z,87.01
2023-01-17T16:25:32.455Z,86.88
2023-01-17T16:27:59.811Z,86.81
2023-01-17T16:30:26.717Z,87.13
2023-01-17T16:32:53.141Z,87.11
2023-01-17T16:35:22.455Z,87.15
2023-01-17T16:37:51.353Z,86.90
2023-01-17T16:40:20.047Z,86.98
2023-01-17T16:42:47.336Z,86.91
2023-01-17T16:45:14.673Z,87.05
2023-01-17T16:47:42.706Z,86.49
2023-01-17T16:50:11.440Z,87.18
2023-01-17T16:52:38.345Z,87.29
2023-01-17T16:55:12.371Z,87.90
2023-01-17T16:57:40.148Z,87.78
2023-01-17T17:00:07.279Z,87.63
2023-01-17T17:02:33.836Z,87.90
2023-01-17T17:05:00.405Z,87.67
2023-01-17T17:07:26.818Z,88.05
2023-01-17T17:09:53.198Z,87.63
2023-01-17T17:12:19.611Z,88.09
2023-01-17T17:14:45.989Z,87.73
2023-01-17T17:17:12.440Z,88.45
2023-01-17T17:19:38.812Z,88.03
2023-01-17T17:22:09.442Z,87.85
2023-01-17T17:24:35.917Z,87.56
2023-01-17T17:27:02.263Z,87.56
2023-01-17T17:29:28.628Z,87.70
2023-01-17T17:31:54.999Z,87.51
2023-01-17T17:34:27.608Z,87.70
2023-01-17T17:36:59.106Z,88.06
2023-01-17T17:39:25.491Z,87.80
2023-01-17T17:41:56.418Z,88.08
2023-01-17T17:44:22.806Z,88.04
2023-01-17T17:46:59.299Z,87.97
2023-01-17T17:49:36.838Z,88.32
2023-01-17T17:52:08.888Z,88.10
2023-01-17T17:54:35.558Z,88.07
2023-01-17T17:57:05.211Z,88.12
2023-01-17T17:59:32.903Z,88.01
2023-01-17T18:02:10.767Z,88.39
2023-01-17T18:04:43.750Z,88.34
2023-01-17T18:07:10.220Z,88.20
2023-01-17T18:09:36.679Z,88.61
2023-01-17T18:12:36.201Z,88.36
2023-01-17T18:15:09.860Z,88.72
2023-01-17T18:17:58.855Z,88.38
2023-01-17T18:20:28.338Z,88.38
2023-01-17T18:22:54.672Z,88.80
2023-01-17T18:25:43.101Z,88.35
2023-01-17T18:29:11.926Z,88.66
2023-01-17T18:31:38.463Z,88.66
2023-01-17T18:34:07.961Z,89.14
2023-01-17T18:36:34.792Z,88.89
2023-01-17T18:39:02.466Z,88.92
2023-01-17T18:41:31.261Z,88.70
2023-01-17T18:43:58.226Z,88.45
2023-01-17T18:46:28.154Z,88.41
2023-01-17T18:48:58.015Z,88.46
2023-01-17T18:51:24.902Z,88.78
2023-01-17T18:53:54.011Z,88.28
2023-01-17T18:56:22.230Z,88.55
2023-01-17T18:58:50.571Z,88.60
2023-01-17T19:01:25.673Z,89.02
2023-01-17T19:03:57.167Z,88.36
2023-01-17T21:26:04.065Z,88.06
2023-01-17T21:28:33.201Z,88.32
2023-01-17T21:31:00.879Z,87.98
2023-01-17T21:33:29.422Z,87.80
2023-01-17T21:36:05.324Z,88.08
2023-01-17T21:38:32.778Z,87.90
2023-01-17T21:41:05.373Z,87.95
2023-01-17T21:43:32.795Z,88.23
2023-01-17T21:46:03.288Z,88.06
2023-01-17T21:48:40.623Z,87.99
2023-01-17T21:51:08.127Z,88.26
2023-01-17T21:53:39.883Z,87.94
2023-01-17T21:56:30.993Z,87.91
2023-01-17T21:59:04.183Z,87.94
2023-01-17T22:01:33.216Z,87.47
2023-01-17T22:04:03.565Z,88.17
2023-01-17T22:06:34.404Z,87.88
2023-01-17T22:09:15.018Z,87.93
2023-01-17T22:11:42.556Z,87.78
2023-01-17T22:14:26.308Z,87.92
2023-01-17T22:17:01.805Z,87.61
2023-01-17T22:19:36.459Z,87.88
2023-01-17T22:22:03.101Z,87.80
2023-01-17T22:24:29.499Z,87.51
2023-01-17T22:26:55.924Z,87.61
2023-01-17T22:29:23.410Z,87.92
2023-01-17T22:31:49.864Z,87.93
2023-01-17T22:34:27.692Z,87.84
2023-01-17T22:36:54.132Z,87.40
2023-01-17T22:39:20.743Z,87.35
2023-01-17T22:41:47.113Z,87.76
2023-01-17T22:44:17.906Z,87.32
2023-01-17T22:46:50.656Z,87.89
2023-01-17T22:49:17.997Z,87.98
2023-01-17T22:51:52.684Z,87.81
2023-01-17T22:54:27.163Z,87.55
2023-01-17T22:56:55.809Z,87.66
2023-01-17T22:59:22.179Z,87.71
2023-01-17T23:01:50.740Z,87.81
2023-01-17T23:04:17.292Z,87.64
2023-01-17T23:06:43.682Z,87.88
2023-01-17T23:09:43.164Z,87.77
2023-01-17T23:12:15.715Z,88.08
2023-01-17T23:15:03.669Z,88.21
2023-01-17T23:17:56.929Z,88.02
2023-01-17T23:20:23.328Z,87.70
2023-01-17T23:23:07.107Z,88.02
2023-01-17T23:25:38.448Z,87.95
2023-01-17T23:28:10.856Z,87.70
2023-01-17T23:30:40.307Z,87.40
2023-01-17T23:33:08.852Z,88.04
2023-01-17T23:35:43.795Z,87.95
2023-01-17T23:38:29.363Z,87.56
2023-01-17T23:41:26.515Z,87.56
2023-01-17T23:43:54.825Z,87.82
2023-01-17T23:46:30.212Z,87.91
2023-01-17T23:48:56.682Z,88.06
2023-01-17T23:51:25.135Z,87.71
2023-01-17T23:54:05.115Z,87.98
2023-01-17T23:56:41.824Z,88.05
2023-01-17T23:59:11.365Z,88.08
